sensor_id;sensor_type;location;lat;lon;timestamp;P1;durP1;ratioP1;P2;durP2;ratioP2
22046;SDS011;11187;49.412;20.956;2022-10-31T00:02:21;22.83;;;20.50;;
22046;SDS011;11187;49.412;20.956;2022-10-31T00:04:54;22.60;;;20.83;;
22046;SDS011;11187;49.412;20.956;2022-10-31T00:07:51;21.67;;;19.83;;
22046;SDS011;11187;49.412;20.956;2022-10-31T00:10:45;20.48;;;19.00;;
22046;SDS011;11187;49.412;20.956;2022-10-31T00:13:18;20.40;;;19.00;;
22046;SDS011;11187;49.412;20.956;2022-10-31T00:16:12;21.80;;;19.98;;
22046;SDS011;11187;49.412;20.956;2022-10-31T00:18:52;20.48;;;19.00;;
22046;SDS011;11187;49.412;20.956;2022-10-31T00:21:47;24.17;;;20.20;;
22046;SDS011;11187;49.412;20.956;2022-10-31T00:24:20;20.58;;;18.90;;
22046;SDS011;11187;49.412;20.956;2022-10-31T00:27:14;32.75;;;19.95;;
22046;SDS011;11187;49.412;20.956;2022-10-31T00:30:08;21.83;;;19.92;;
22046;SDS011;11187;49.412;20.956;2022-10-31T00:32:41;21.50;;;19.90;;
22046;SDS011;11187;49.412;20.956;2022-10-31T00:35:28;24.90;;;19.60;;
22046;SDS011;11187;49.412;20.956;2022-10-31T00:38:01;20.50;;;19.00;;
22046;SDS011;11187;49.412;20.956;2022-10-31T00:40:55;19.98;;;18.67;;
22046;SDS011;11187;49.412;20.956;2022-10-31T00:43:49;18.88;;;17.50;;
22046;SDS011;11187;49.412;20.956;2022-10-31T00:46:22;21.88;;;19.77;;
22046;SDS011;11187;49.412;20.956;2022-10-31T00:49:09;20.08;;;18.00;;
22046;SDS011;11187;49.412;20.956;2022-10-31T00:51:42;26.73;;;19.08;;
22046;SDS011;11187;49.412;20.956;2022-10-31T00:54:36;21.55;;;19.40;;
22046;SDS011;11187;49.412;20.956;2022-10-31T00:57:09;20.40;;;18.70;;
22046;SDS011;11187;49.412;20.956;2022-10-31T00:59:56;20.63;;;18.58;;
22046;SDS011;11187;49.412;20.956;2022-10-31T01:02:29;18.95;;;17.55;;
22046;SDS011;11187;49.412;20.956;2022-10-31T01:05:16;20.75;;;18.90;;
22046;SDS011;11187;49.412;20.956;2022-10-31T01:07:49;21.38;;;19.98;;
22046;SDS011;11187;49.412;20.956;2022-10-31T01:10:43;21.73;;;20.02;;
22046;SDS011;11187;49.412;20.956;2022-10-31T01:13:37;21.40;;;20.00;;
22046;SDS011;11187;49.412;20.956;2022-10-31T01:16:13;20.02;;;18.40;;
22046;SDS011;11187;49.412;20.956;2022-10-31T01:19:01;20.15;;;18.85;;
22046;SDS011;11187;49.412;20.956;2022-10-31T01:21:34;18.73;;;17.48;;
22046;SDS011;11187;49.412;20.956;2022-10-31T01:24:21;21.02;;;19.60;;
22046;SDS011;11187;49.412;20.956;2022-10-31T01:26:54;20.63;;;18.95;;
22046;SDS011;11187;49.412;20.956;2022-10-31T01:29:48;20.20;;;18.25;;
22046;SDS011;11187;49.412;20.956;2022-10-31T01:32:21;19.42;;;18.00;;
22046;SDS011;11187;49.412;20.956;2022-10-31T01:35:08;19.90;;;18.60;;
22046;SDS011;11187;49.412;20.956;2022-10-31T01:37:41;22.50;;;20.40;;
22046;SDS011;11187;49.412;20.956;2022-10-31T01:40:35;19.23;;;17.73;;
22046;SDS011;11187;49.412;20.956;2022-10-31T01:43:42;20.60;;;19.20;;
22046;SDS011;11187;49.412;20.956;2022-10-31T01:46:17;19.67;;;18.02;;
22046;SDS011;11187;49.412;20.956;2022-10-31T01:49:21;24.90;;;18.05;;
22046;SDS011;11187;49.412;20.956;2022-10-31T01:52:27;19.92;;;18.63;;
22046;SDS011;11187;49.412;20.956;2022-10-31T01:58:09;19.30;;;17.75;;
22046;SDS011;11187;49.412;20.956;2022-10-31T02:01:07;18.83;;;16.88;;
22046;SDS011;11187;49.412;20.956;2022-10-31T02:04:01;19.60;;;18.08;;
22046;SDS011;11187;49.412;20.956;2022-10-31T02:06:57;19.77;;;17.85;;
22046;SDS011;11187;49.412;20.956;2022-10-31T02:09:34;18.80;;;17.15;;
22046;SDS011;11187;49.412;20.956;2022-10-31T02:12:23;18.67;;;16.88;;
22046;SDS011;11187;49.412;20.956;2022-10-31T02:14:58;19.95;;;18.08;;
22046;SDS011;11187;49.412;20.956;2022-10-31T02:17:53;20.30;;;19.00;;
22046;SDS011;11187;49.412;20.956;2022-10-31T02:39:10;30.80;;;17.92;;
22046;SDS011;11187;49.412;20.956;2022-10-31T02:48:18;20.02;;;18.55;;
22046;SDS011;11187;49.412;20.956;2022-10-31T02:50:55;19.63;;;18.25;;
22046;SDS011;11187;49.412;20.956;2022-10-31T02:53:45;20.38;;;18.50;;
22046;SDS011;11187;49.412;20.956;2022-10-31T02:56:19;18.88;;;17.52;;
22046;SDS011;11187;49.412;20.956;2022-10-31T02:59:06;18.45;;;17.13;;
22046;SDS011;11187;49.412;20.956;2022-10-31T03:02:04;19.80;;;18.50;;
22046;SDS011;11187;49.412;20.956;2022-10-31T03:16:47;17.83;;;16.35;;
22046;SDS011;11187;49.412;20.956;2022-10-31T03:19:36;19.15;;;17.83;;
22046;SDS011;11187;49.412;20.956;2022-10-31T03:22:27;18.90;;;17.45;;
22046;SDS011;11187;49.412;20.956;2022-10-31T03:25:04;25.35;;;18.58;;
22046;SDS011;11187;49.412;20.956;2022-10-31T03:27:51;19.13;;;17.60;;
22046;SDS011;11187;49.412;20.956;2022-10-31T03:30:26;18.85;;;16.80;;
22046;SDS011;11187;49.412;20.956;2022-10-31T03:33:15;28.02;;;16.10;;
22046;SDS011;11187;49.412;20.956;2022-10-31T03:35:52;37.67;;;18.50;;
22046;SDS011;11187;49.412;20.956;2022-10-31T03:38:49;31.88;;;17.58;;
22046;SDS011;11187;49.412;20.956;2022-10-31T03:41:46;20.85;;;17.15;;
22046;SDS011;11187;49.412;20.956;2022-10-31T03:44:26;17.88;;;16.40;;
22046;SDS011;11187;49.412;20.956;2022-10-31T03:47:15;17.15;;;16.00;;
22046;SDS011;11187;49.412;20.956;2022-10-31T03:49:49;23.65;;;17.15;;
22046;SDS011;11187;49.412;20.956;2022-10-31T03:52:45;17.77;;;16.25;;
22046;SDS011;11187;49.412;20.956;2022-10-31T03:55:42;19.33;;;17.33;;
22046;SDS011;11187;49.412;20.956;2022-10-31T03:58:23;18.17;;;16.73;;
22046;SDS011;11187;49.412;20.956;2022-10-31T04:01:24;18.83;;;17.48;;
22046;SDS011;11187;49.412;20.956;2022-10-31T04:04:20;16.88;;;15.55;;
22046;SDS011;11187;49.412;20.956;2022-10-31T04:07:14;19.95;;;17.92;;
22046;SDS011;11187;49.412;20.956;2022-10-31T04:09:49;18.85;;;17.23;;
22046;SDS011;11187;49.412;20.956;2022-10-31T04:12:37;18.08;;;16.80;;
22046;SDS011;11187;49.412;20.956;2022-10-31T04:15:12;25.35;;;17.33;;
22046;SDS011;11187;49.412;20.956;2022-10-31T04:17:59;26.33;;;17.83;;
22046;SDS011;11187;49.412;20.956;2022-10-31T04:20:40;24.02;;;18.17;;
22046;SDS011;11187;49.412;20.956;2022-10-31T04:23:37;21.20;;;19.42;;
22046;SDS011;11187;49.412;20.956;2022-10-31T04:26:31;22.70;;;18.10;;
22046;SDS011;11187;49.412;20.956;2022-10-31T04:29:25;21.20;;;19.45;;
22046;SDS011;11187;49.412;20.956;2022-10-31T04:31:59;24.92;;;19.15;;
22046;SDS011;11187;49.412;20.956;2022-10-31T04:34:52;20.23;;;18.25;;
22046;SDS011;11187;49.412;20.956;2022-10-31T04:37:26;24.45;;;18.05;;
22046;SDS011;11187;49.412;20.956;2022-10-31T04:40:12;20.05;;;18.02;;
22046;SDS011;11187;49.412;20.956;2022-10-31T04:42:46;19.40;;;17.75;;
22046;SDS011;11187;49.412;20.956;2022-10-31T04:45:39;19.65;;;17.75;;
22046;SDS011;11187;49.412;20.956;2022-10-31T04:48:15;19.30;;;18.00;;
22046;SDS011;11187;49.412;20.956;2022-10-31T04:51:02;22.23;;;19.85;;
22046;SDS011;11187;49.412;20.956;2022-10-31T04:53:36;20.85;;;18.75;;
22046;SDS011;11187;49.412;20.956;2022-10-31T04:56:22;23.13;;;18.45;;
22046;SDS011;11187;49.412;20.956;2022-10-31T04:58:56;18.85;;;17.60;;
22046;SDS011;11187;49.412;20.956;2022-10-31T05:01:49;26.10;;;17.65;;
22046;SDS011;11187;49.412;20.956;2022-10-31T05:04:43;17.90;;;16.77;;
22046;SDS011;11187;49.412;20.956;2022-10-31T05:07:38;17.02;;;14.15;;
22046;SDS011;11187;49.412;20.956;2022-10-31T05:10:35;16.30;;;14.57;;
22046;SDS011;11187;49.412;20.956;2022-10-31T05:13:29;27.15;;;16.33;;
22046;SDS011;11187;49.412;20.956;2022-10-31T05:16:03;16.63;;;14.57;;
22046;SDS011;11187;49.412;20.956;2022-10-31T05:18:49;16.35;;;14.90;;
22046;SDS011;11187;49.412;20.956;2022-10-31T05:21:25;13.68;;;12.77;;
22046;SDS011;11187;49.412;20.956;2022-10-31T05:24:12;14.77;;;13.35;;
22046;SDS011;11187;49.412;20.956;2022-10-31T05:26:46;16.95;;;15.20;;
22046;SDS011;11187;49.412;20.956;2022-10-31T05:29:32;16.25;;;15.10;;
22046;SDS011;11187;49.412;20.956;2022-10-31T05:32:06;21.08;;;15.73;;
22046;SDS011;11187;49.412;20.956;2022-10-31T05:34:52;18.17;;;16.35;;
22046;SDS011;11187;49.412;20.956;2022-10-31T05:37:26;17.90;;;16.38;;
22046;SDS011;11187;49.412;20.956;2022-10-31T05:40:13;18.23;;;16.83;;
22046;SDS011;11187;49.412;20.956;2022-10-31T05:42:47;17.75;;;16.60;;
22046;SDS011;11187;49.412;20.956;2022-10-31T05:45:38;14.85;;;13.75;;
22046;SDS011;11187;49.412;20.956;2022-10-31T05:48:12;18.48;;;13.98;;
22046;SDS011;11187;49.412;20.956;2022-10-31T05:50:58;20.75;;;17.58;;
22046;SDS011;11187;49.412;20.956;2022-10-31T05:53:32;17.80;;;15.93;;
22046;SDS011;11187;49.412;20.956;2022-10-31T05:56:18;17.75;;;16.45;;
22046;SDS011;11187;49.412;20.956;2022-10-31T05:58:52;20.58;;;19.08;;
22046;SDS011;11187;49.412;20.956;2022-10-31T06:01:45;18.17;;;16.33;;
22046;SDS011;11187;49.412;20.956;2022-10-31T06:04:39;16.45;;;15.27;;
22046;SDS011;11187;49.412;20.956;2022-10-31T06:07:33;17.45;;;16.25;;
22046;SDS011;11187;49.412;20.956;2022-10-31T06:10:29;16.02;;;14.82;;
22046;SDS011;11187;49.412;20.956;2022-10-31T06:13:23;17.73;;;16.10;;
22046;SDS011;11187;49.412;20.956;2022-10-31T06:15:57;15.77;;;14.57;;
22046;SDS011;11187;49.412;20.956;2022-10-31T06:18:44;16.38;;;14.90;;
22046;SDS011;11187;49.412;20.956;2022-10-31T06:21:19;23.27;;;16.10;;
22046;SDS011;11187;49.412;20.956;2022-10-31T06:24:05;17.20;;;15.60;;
22046;SDS011;11187;49.412;20.956;2022-10-31T06:26:42;18.40;;;17.15;;
22046;SDS011;11187;49.412;20.956;2022-10-31T06:29:28;23.90;;;17.63;;
22046;SDS011;11187;49.412;20.956;2022-10-31T06:32:02;18.95;;;17.55;;
22046;SDS011;11187;49.412;20.956;2022-10-31T06:34:48;16.95;;;15.75;;
22046;SDS011;11187;49.412;20.956;2022-10-31T06:37:22;17.13;;;15.40;;
22046;SDS011;11187;49.412;20.956;2022-10-31T06:40:15;17.88;;;16.65;;
22046;SDS011;11187;49.412;20.956;2022-10-31T06:43:09;17.70;;;16.00;;
22046;SDS011;11187;49.412;20.956;2022-10-31T06:45:44;18.63;;;16.63;;
22046;SDS011;11187;49.412;20.956;2022-10-31T06:48:37;17.15;;;15.73;;
22046;SDS011;11187;49.412;20.956;2022-10-31T06:51:31;15.98;;;14.40;;
22046;SDS011;11187;49.412;20.956;2022-10-31T06:54:25;17.05;;;15.80;;
22046;SDS011;11187;49.412;20.956;2022-10-31T06:56:59;18.25;;;16.88;;
22046;SDS011;11187;49.412;20.956;2022-10-31T06:59:45;17.30;;;15.65;;
22046;SDS011;11187;49.412;20.956;2022-10-31T07:02:39;15.88;;;14.07;;
22046;SDS011;11187;49.412;20.956;2022-10-31T07:05:33;18.05;;;16.52;;
22046;SDS011;11187;49.412;20.956;2022-10-31T07:08:07;20.17;;;14.23;;
22046;SDS011;11187;49.412;20.956;2022-10-31T07:11:03;15.02;;;13.77;;
22046;SDS011;11187;49.412;20.956;2022-10-31T07:13:57;16.00;;;14.90;;
22046;SDS011;11187;49.412;20.956;2022-10-31T07:16:51;15.88;;;14.77;;
22046;SDS011;11187;49.412;20.956;2022-10-31T07:19:25;16.20;;;15.00;;
22046;SDS011;11187;49.412;20.956;2022-10-31T07:22:14;16.20;;;15.10;;
22046;SDS011;11187;49.412;20.956;2022-10-31T07:24:48;16.35;;;15.05;;
22046;SDS011;11187;49.412;20.956;2022-10-31T07:27:35;15.25;;;13.82;;
22046;SDS011;11187;49.412;20.956;2022-10-31T07:30:10;16.70;;;15.50;;
22046;SDS011;11187;49.412;20.956;2022-10-31T07:33:05;16.90;;;15.77;;
22046;SDS011;11187;49.412;20.956;2022-10-31T07:35:40;15.40;;;14.30;;
22046;SDS011;11187;49.412;20.956;2022-10-31T07:38:33;13.38;;;12.48;;
22046;SDS011;11187;49.412;20.956;2022-10-31T07:41:07;20.05;;;16.45;;
22046;SDS011;11187;49.412;20.956;2022-10-31T07:44:00;17.75;;;16.45;;
22046;SDS011;11187;49.412;20.956;2022-10-31T07:46:54;15.75;;;14.75;;
22046;SDS011;11187;49.412;20.956;2022-10-31T07:49:28;17.13;;;15.95;;
22046;SDS011;11187;49.412;20.956;2022-10-31T07:52:21;17.17;;;15.80;;
22046;SDS011;11187;49.412;20.956;2022-10-31T07:55:15;18.92;;;17.15;;
22046;SDS011;11187;49.412;20.956;2022-10-31T07:58:05;20.25;;;18.83;;
22046;SDS011;11187;49.412;20.956;2022-10-31T08:00:53;20.98;;;19.48;;
22046;SDS011;11187;49.412;20.956;2022-10-31T08:03:27;15.85;;;14.75;;
22046;SDS011;11187;49.412;20.956;2022-10-31T08:06:20;17.92;;;16.73;;
22046;SDS011;11187;49.412;20.956;2022-10-31T08:08:54;18.45;;;17.33;;
22046;SDS011;11187;49.412;20.956;2022-10-31T08:11:40;17.30;;;16.20;;
22046;SDS011;11187;49.412;20.956;2022-10-31T08:14:14;18.35;;;17.15;;
22046;SDS011;11187;49.412;20.956;2022-10-31T08:17:00;20.33;;;19.02;;
22046;SDS011;11187;49.412;20.956;2022-10-31T08:19:34;18.95;;;17.75;;
22046;SDS011;11187;49.412;20.956;2022-10-31T08:22:22;16.80;;;15.70;;
22046;SDS011;11187;49.412;20.956;2022-10-31T08:24:56;18.90;;;17.50;;
22046;SDS011;11187;49.412;20.956;2022-10-31T08:27:48;19.00;;;17.80;;
22046;SDS011;11187;49.412;20.956;2022-10-31T08:30:24;16.52;;;15.43;;
22046;SDS011;11187;49.412;20.956;2022-10-31T08:33:15;16.52;;;15.48;;
22046;SDS011;11187;49.412;20.956;2022-10-31T08:35:50;16.65;;;15.55;;
22046;SDS011;11187;49.412;20.956;2022-10-31T08:38:37;17.05;;;15.85;;
22046;SDS011;11187;49.412;20.956;2022-10-31T08:41:11;19.20;;;17.90;;
22046;SDS011;11187;49.412;20.956;2022-10-31T08:44:04;18.65;;;17.17;;
22046;SDS011;11187;49.412;20.956;2022-10-31T08:46:38;17.15;;;15.95;;
22046;SDS011;11187;49.412;20.956;2022-10-31T08:49:31;16.52;;;15.32;;
22046;SDS011;11187;49.412;20.956;2022-10-31T08:52:28;17.58;;;16.27;;
22046;SDS011;11187;49.412;20.956;2022-10-31T08:55:22;19.92;;;18.50;;
22046;SDS011;11187;49.412;20.956;2022-10-31T08:58:10;18.40;;;16.83;;
22046;SDS011;11187;49.412;20.956;2022-10-31T09:00:45;18.20;;;16.80;;
22046;SDS011;11187;49.412;20.956;2022-10-31T09:03:33;18.25;;;16.75;;
22046;SDS011;11187;49.412;20.956;2022-10-31T09:06:07;19.95;;;18.45;;
22046;SDS011;11187;49.412;20.956;2022-10-31T09:08:53;21.15;;;19.55;;
22046;SDS011;11187;49.412;20.956;2022-10-31T09:11:27;19.77;;;18.17;;
22046;SDS011;11187;49.412;20.956;2022-10-31T09:14:13;19.92;;;18.05;;
22046;SDS011;11187;49.412;20.956;2022-10-31T09:16:47;18.65;;;17.25;;
22046;SDS011;11187;49.412;20.956;2022-10-31T09:19:36;21.55;;;19.80;;
22046;SDS011;11187;49.412;20.956;2022-10-31T09:22:10;23.40;;;21.67;;
22046;SDS011;11187;49.412;20.956;2022-10-31T09:24:56;20.88;;;19.27;;
22046;SDS011;11187;49.412;20.956;2022-10-31T09:27:30;18.38;;;17.08;;
22046;SDS011;11187;49.412;20.956;2022-10-31T09:30:24;19.20;;;17.92;;
22046;SDS011;11187;49.412;20.956;2022-10-31T09:33:18;20.98;;;19.60;;
22046;SDS011;11187;49.412;20.956;2022-10-31T09:36:12;18.55;;;17.05;;
22046;SDS011;11187;49.412;20.956;2022-10-31T09:38:46;17.25;;;16.15;;
22046;SDS011;11187;49.412;20.956;2022-10-31T09:44:43;17.20;;;15.48;;
22046;SDS011;11187;49.412;20.956;2022-10-31T09:51:08;18.65;;;17.35;;
22046;SDS011;11187;49.412;20.956;2022-10-31T09:56:40;16.63;;;15.40;;
22046;SDS011;11187;49.412;20.956;2022-10-31T09:59:26;16.35;;;15.20;;
22046;SDS011;11187;49.412;20.956;2022-10-31T10:08:31;16.35;;;15.25;;
22046;SDS011;11187;49.412;20.956;2022-10-31T10:26:40;18.50;;;16.65;;
22046;SDS011;11187;49.412;20.956;2022-10-31T10:32:23;16.30;;;15.20;;
22046;SDS011;11187;49.412;20.956;2022-10-31T10:35:02;18.33;;;16.80;;
22046;SDS011;11187;49.412;20.956;2022-10-31T10:38:27;17.38;;;16.17;;
22046;SDS011;11187;49.412;20.956;2022-10-31T10:41:15;16.70;;;15.48;;
22046;SDS011;11187;49.412;20.956;2022-10-31T10:44:13;17.05;;;15.95;;
22046;SDS011;11187;49.412;20.956;2022-10-31T10:47:07;17.20;;;16.10;;
22046;SDS011;11187;49.412;20.956;2022-10-31T10:50:24;18.63;;;17.17;;
22046;SDS011;11187;49.412;20.956;2022-10-31T10:56:26;17.58;;;16.38;;
22046;SDS011;11187;49.412;20.956;2022-10-31T10:59:11;19.65;;;17.95;;
22046;SDS011;11187;49.412;20.956;2022-10-31T11:02:03;20.00;;;18.17;;
22046;SDS011;11187;49.412;20.956;2022-10-31T11:04:49;17.55;;;16.35;;
22046;SDS011;11187;49.412;20.956;2022-10-31T11:07:40;20.13;;;18.73;;
22046;SDS011;11187;49.412;20.956;2022-10-31T11:10:15;19.73;;;18.35;;
22046;SDS011;11187;49.412;20.956;2022-10-31T11:18:41;18.00;;;16.80;;
22046;SDS011;11187;49.412;20.956;2022-10-31T11:21:22;17.52;;;16.23;;
22046;SDS011;11187;49.412;20.956;2022-10-31T11:24:22;17.27;;;15.88;;
22046;SDS011;11187;49.412;20.956;2022-10-31T11:27:10;16.58;;;15.45;;
22046;SDS011;11187;49.412;20.956;2022-10-31T11:30:09;18.35;;;17.05;;
22046;SDS011;11187;49.412;20.956;2022-10-31T11:32:48;17.20;;;16.00;;
22046;SDS011;11187;49.412;20.956;2022-10-31T11:35:43;18.67;;;17.33;;
22046;SDS011;11187;49.412;20.956;2022-10-31T11:38:41;19.63;;;17.98;;
22046;SDS011;11187;49.412;20.956;2022-10-31T11:41:26;17.85;;;16.70;;
22046;SDS011;11187;49.412;20.956;2022-10-31T11:44:16;17.15;;;16.02;;
22046;SDS011;11187;49.412;20.956;2022-10-31T11:46:53;17.50;;;16.30;;
22046;SDS011;11187;49.412;20.956;2022-10-31T11:49:42;19.33;;;17.90;;
22046;SDS011;11187;49.412;20.956;2022-10-31T11:52:19;16.23;;;15.13;;
22046;SDS011;11187;49.412;20.956;2022-10-31T11:55:25;17.65;;;16.35;;
22046;SDS011;11187;49.412;20.956;2022-10-31T11:58:04;17.73;;;16.10;;
22046;SDS011;11187;49.412;20.956;2022-10-31T12:01:29;17.83;;;16.50;;
22046;SDS011;11187;49.412;20.956;2022-10-31T12:04:35;19.08;;;17.50;;
22046;SDS011;11187;49.412;20.956;2022-10-31T12:07:14;19.60;;;18.00;;
22046;SDS011;11187;49.412;20.956;2022-10-31T12:10:09;18.20;;;16.98;;
22046;SDS011;11187;49.412;20.956;2022-10-31T12:15:55;16.77;;;15.30;;
22046;SDS011;11187;49.412;20.956;2022-10-31T12:19:00;19.42;;;18.05;;
22046;SDS011;11187;49.412;20.956;2022-10-31T13:08:09;21.92;;;19.92;;
22046;SDS011;11187;49.412;20.956;2022-10-31T13:16:43;21.77;;;19.98;;
22046;SDS011;11187;49.412;20.956;2022-10-31T13:19:24;20.17;;;18.58;;
22046;SDS011;11187;49.412;20.956;2022-10-31T13:22:24;20.45;;;18.45;;
22046;SDS011;11187;49.412;20.956;2022-10-31T13:30:33;22.23;;;20.63;;
22046;SDS011;11187;49.412;20.956;2022-10-31T13:33:52;19.15;;;17.75;;
22046;SDS011;11187;49.412;20.956;2022-10-31T13:36:52;20.67;;;19.08;;
22046;SDS011;11187;49.412;20.956;2022-10-31T13:45:18;18.98;;;17.67;;
22046;SDS011;11187;49.412;20.956;2022-10-31T13:50:57;18.17;;;16.83;;
22046;SDS011;11187;49.412;20.956;2022-10-31T13:56:24;19.38;;;17.67;;
22046;SDS011;11187;49.412;20.956;2022-10-31T13:59:23;18.48;;;17.25;;
22046;SDS011;11187;49.412;20.956;2022-10-31T14:02:01;20.10;;;18.63;;
22046;SDS011;11187;49.412;20.956;2022-10-31T14:04:59;19.80;;;18.45;;
22046;SDS011;11187;49.412;20.956;2022-10-31T14:07:41;19.00;;;17.50;;
22046;SDS011;11187;49.412;20.956;2022-10-31T14:10:36;20.95;;;19.45;;
22046;SDS011;11187;49.412;20.956;2022-10-31T14:16:23;19.35;;;18.00;;
22046;SDS011;11187;49.412;20.956;2022-10-31T14:19:06;21.27;;;19.38;;
22046;SDS011;11187;49.412;20.956;2022-10-31T14:22:19;19.90;;;18.30;;
22046;SDS011;11187;49.412;20.956;2022-10-31T14:25:24;18.90;;;17.60;;
22046;SDS011;11187;49.412;20.956;2022-10-31T14:28:18;20.75;;;19.35;;
22046;SDS011;11187;49.412;20.956;2022-10-31T14:34:32;19.10;;;17.70;;
22046;SDS011;11187;49.412;20.956;2022-10-31T14:43:50;17.70;;;16.50;;
22046;SDS011;11187;49.412;20.956;2022-10-31T14:46:49;20.00;;;18.50;;
22046;SDS011;11187;49.412;20.956;2022-10-31T14:52:52;19.25;;;17.80;;
22046;SDS011;11187;49.412;20.956;2022-10-31T14:55:51;21.08;;;19.48;;
22046;SDS011;11187;49.412;20.956;2022-10-31T14:58:34;21.60;;;20.00;;
22046;SDS011;11187;49.412;20.956;2022-10-31T15:01:27;18.65;;;17.27;;
22046;SDS011;11187;49.412;20.956;2022-10-31T15:04:24;18.60;;;16.75;;
22046;SDS011;11187;49.412;20.956;2022-10-31T15:07:20;19.50;;;17.90;;
22046;SDS011;11187;49.412;20.956;2022-10-31T15:16:15;21.17;;;19.58;;
22046;SDS011;11187;49.412;20.956;2022-10-31T15:18:52;20.42;;;18.58;;
22046;SDS011;11187;49.412;20.956;2022-10-31T15:21:42;19.73;;;18.13;;
22046;SDS011;11187;49.412;20.956;2022-10-31T15:24:20;20.63;;;19.02;;
22046;SDS011;11187;49.412;20.956;2022-10-31T15:27:17;21.73;;;20.02;;
22046;SDS011;11187;49.412;20.956;2022-10-31T15:29:55;20.60;;;18.98;;
22046;SDS011;11187;49.412;20.956;2022-10-31T15:32:50;21.55;;;19.70;;
22046;SDS011;11187;49.412;20.956;2022-10-31T15:35:53;22.70;;;21.00;;
22046;SDS011;11187;49.412;20.956;2022-10-31T15:38:48;20.85;;;19.17;;
22046;SDS011;11187;49.412;20.956;2022-10-31T15:41:35;20.02;;;18.42;;
22046;SDS011;11187;49.412;20.956;2022-10-31T15:44:34;20.73;;;19.25;;
22046;SDS011;11187;49.412;20.956;2022-10-31T15:47:16;21.83;;;20.13;;
22046;SDS011;11187;49.412;20.956;2022-10-31T15:50:06;18.35;;;16.95;;
22046;SDS011;11187;49.412;20.956;2022-10-31T15:52:53;18.95;;;17.55;;
22046;SDS011;11187;49.412;20.956;2022-10-31T15:55:45;21.00;;;19.30;;
22046;SDS011;11187;49.412;20.956;2022-10-31T15:58:21;20.05;;;18.35;;
22046;SDS011;11187;49.412;20.956;2022-10-31T16:04:22;18.00;;;16.60;;
22046;SDS011;11187;49.412;20.956;2022-10-31T16:07:00;18.17;;;16.38;;
22046;SDS011;11187;49.412;20.956;2022-10-31T16:10:03;20.52;;;18.83;;
22046;SDS011;11187;49.412;20.956;2022-10-31T16:12:44;19.83;;;18.05;;
22046;SDS011;11187;49.412;20.956;2022-10-31T16:15:31;19.85;;;18.25;;
22046;SDS011;11187;49.412;20.956;2022-10-31T16:18:10;21.63;;;19.80;;
22046;SDS011;11187;49.412;20.956;2022-10-31T16:20:58;19.85;;;18.10;;
22046;SDS011;11187;49.412;20.956;2022-10-31T16:23:31;23.50;;;21.35;;
22046;SDS011;11187;49.412;20.956;2022-10-31T16:26:18;22.17;;;20.23;;
22046;SDS011;11187;49.412;20.956;2022-10-31T16:28:52;21.95;;;19.98;;
22046;SDS011;11187;49.412;20.956;2022-10-31T16:31:45;20.42;;;18.60;;
22046;SDS011;11187;49.412;20.956;2022-10-31T16:34:21;20.38;;;18.48;;
22046;SDS011;11187;49.412;20.956;2022-10-31T16:37:09;20.77;;;18.98;;
22046;SDS011;11187;49.412;20.956;2022-10-31T16:39:42;20.10;;;18.08;;
22046;SDS011;11187;49.412;20.956;2022-10-31T16:42:29;21.88;;;20.00;;
22046;SDS011;11187;49.412;20.956;2022-10-31T16:45:03;37.10;;;33.17;;
22046;SDS011;11187;49.412;20.956;2022-10-31T16:47:52;36.55;;;32.67;;
22046;SDS011;11187;49.412;20.956;2022-10-31T16:50:26;29.13;;;26.23;;
22046;SDS011;11187;49.412;20.956;2022-10-31T16:53:14;30.48;;;26.05;;
22046;SDS011;11187;49.412;20.956;2022-10-31T16:55:55;24.25;;;21.92;;
22046;SDS011;11187;49.412;20.956;2022-10-31T16:58:51;24.08;;;21.88;;
22046;SDS011;11187;49.412;20.956;2022-10-31T17:01:45;21.90;;;19.80;;
22046;SDS011;11187;49.412;20.956;2022-10-31T17:04:42;26.35;;;23.80;;
22046;SDS011;11187;49.412;20.956;2022-10-31T17:07:36;25.55;;;23.13;;
22046;SDS011;11187;49.412;20.956;2022-10-31T17:10:09;22.90;;;20.88;;
22046;SDS011;11187;49.412;20.956;2022-10-31T17:12:59;21.27;;;19.30;;
22046;SDS011;11187;49.412;20.956;2022-10-31T17:15:40;22.92;;;20.73;;
22046;SDS011;11187;49.412;20.956;2022-10-31T17:18:30;21.70;;;19.55;;
22046;SDS011;11187;49.412;20.956;2022-10-31T17:21:03;24.70;;;22.13;;
22046;SDS011;11187;49.412;20.956;2022-10-31T17:23:58;22.58;;;20.38;;
22046;SDS011;11187;49.412;20.956;2022-10-31T17:26:52;24.40;;;21.80;;
22046;SDS011;11187;49.412;20.956;2022-10-31T17:29:25;30.17;;;23.27;;
22046;SDS011;11187;49.412;20.956;2022-10-31T17:32:12;25.77;;;21.88;;
22046;SDS011;11187;49.412;20.956;2022-10-31T17:34:45;25.02;;;22.42;;
22046;SDS011;11187;49.412;20.956;2022-10-31T17:37:39;22.65;;;20.48;;
22046;SDS011;11187;49.412;20.956;2022-10-31T17:40:15;20.85;;;18.85;;
22046;SDS011;11187;49.412;20.956;2022-10-31T17:43:04;22.25;;;20.17;;
22046;SDS011;11187;49.412;20.956;2022-10-31T17:45:39;24.02;;;21.65;;
22046;SDS011;11187;49.412;20.956;2022-10-31T17:48:34;24.85;;;22.02;;
22046;SDS011;11187;49.412;20.956;2022-10-31T17:51:29;25.23;;;21.92;;
22046;SDS011;11187;49.412;20.956;2022-10-31T17:54:02;23.85;;;19.95;;
22046;SDS011;11187;49.412;20.956;2022-10-31T17:56:56;22.52;;;20.02;;
22046;SDS011;11187;49.412;20.956;2022-10-31T17:59:50;22.67;;;20.75;;
22046;SDS011;11187;49.412;20.956;2022-10-31T18:02:23;21.60;;;19.52;;
22046;SDS011;11187;49.412;20.956;2022-10-31T18:05:10;21.08;;;19.00;;
22046;SDS011;11187;49.412;20.956;2022-10-31T18:07:43;27.77;;;22.90;;
22046;SDS011;11187;49.412;20.956;2022-10-31T18:10:42;24.88;;;22.38;;
22046;SDS011;11187;49.412;20.956;2022-10-31T18:13:15;23.75;;;21.45;;
22046;SDS011;11187;49.412;20.956;2022-10-31T18:16:05;28.27;;;23.65;;
22046;SDS011;11187;49.412;20.956;2022-10-31T18:18:42;26.73;;;23.85;;
22046;SDS011;11187;49.412;20.956;2022-10-31T18:21:36;29.63;;;19.13;;
22046;SDS011;11187;49.412;20.956;2022-10-31T18:24:09;21.58;;;19.67;;
22046;SDS011;11187;49.412;20.956;2022-10-31T18:26:56;28.40;;;17.52;;
22046;SDS011;11187;49.412;20.956;2022-10-31T18:29:29;29.75;;;20.25;;
22046;SDS011;11187;49.412;20.956;2022-10-31T18:32:23;28.65;;;22.92;;
22046;SDS011;11187;49.412;20.956;2022-10-31T18:34:56;36.03;;;21.30;;
22046;SDS011;11187;49.412;20.956;2022-10-31T18:37:43;19.35;;;17.73;;
22046;SDS011;11187;49.412;20.956;2022-10-31T18:40:16;20.92;;;19.13;;
22046;SDS011;11187;49.412;20.956;2022-10-31T18:43:10;19.83;;;17.88;;
22046;SDS011;11187;49.412;20.956;2022-10-31T18:46:05;20.05;;;18.35;;
22046;SDS011;11187;49.412;20.956;2022-10-31T18:48:41;20.55;;;18.98;;
22046;SDS011;11187;49.412;20.956;2022-10-31T18:51:36;17.02;;;15.43;;
22046;SDS011;11187;49.412;20.956;2022-10-31T18:54:30;17.90;;;16.27;;
22046;SDS011;11187;49.412;20.956;2022-10-31T18:57:24;18.23;;;16.73;;
22046;SDS011;11187;49.412;20.956;2022-10-31T18:59:59;19.70;;;18.13;;